LNG Dream — C6VO5 — position and weather

sailwx.info

Track history (hours):
 
Tides and Currents Weather Stations Pressure Air Temp Water Temp Dewpoint Dewpoint Depression Visibility Wind Speed Wind Dir Waves Ship Positions

LNG Dream

Last reported at 2017-Oct-12 04:44 UTC. Time now 2017-Oct-18 22:22 UTC.
Position N 33°55' E 134°54'.

Length 289.6 m; beam 49 m.

Type: Ship (hazmat cat A). MMSI: 309065000.

Date/timePositionNaut miles runAvg speedWind from/ knotsBaromVisibWave heightAir tempDewpointWater temp
2017-Oct-12 04:44N 33°55' E 134°54'314.9
2017-Oct-12 04:30N 33°58' E 134°54'714.4
2017-Oct-12 04:00N 34°05' E 134°54'713.3
2017-Oct-12 03:30N 34°12' E 134°56'710.3
2017-Oct-12 02:50N 34°18' E 134°59'413.1
2017-Oct-12 02:30N 34°22' E 135°01'713.7
2017-Oct-12 02:00N 34°27' E 135°06'714.5
2017-Oct-12 01:30N 34°31' E 135°14'611.9
2017-Oct-12 01:00N 34°33' E 135°20'4 7.1
2017-Oct-12 00:28N 34°33' E 135°25'24 1.0
2017-Oct-11 00:00N 34°20' E 135°01'612.7
2017-Oct-10 23:30N 34°14' E 134°60'5 9.5
2017-Oct-10 23:00N 34°09' E 135°00'510.0
2017-Oct-10 22:30N 34°04' E 134°60'4 8.1
2017-Oct-10 22:00N 33°60' E 134°60'5 9.5
2017-Oct-10 21:28N 33°55' E 134°59'  
Track history (hours):
 
Tides and Currents Weather Stations Pressure Air Temp Water Temp Dewpoint Dewpoint Depression Visibility Wind Speed Wind Dir Waves Ship Positions

LNG Dream

Last reported at 2017-Oct-12 04:44 UTC. Time now 2017-Oct-18 22:22 UTC.
Position N 33°55' E 134°54'.

Length 289.6 m; beam 49 m.

Type: Ship (hazmat cat A). MMSI: 309065000.

Date/timePositionNaut miles runAvg speedWind from/ knotsBaromVisibWave heightAir tempDewpointWater temp
2017-Oct-12 04:44N 33°55' E 134°54'314.9
2017-Oct-12 04:30N 33°58' E 134°54'714.4
2017-Oct-12 04:00N 34°05' E 134°54'713.3
2017-Oct-12 03:30N 34°12' E 134°56'710.3
2017-Oct-12 02:50N 34°18' E 134°59'413.1
2017-Oct-12 02:30N 34°22' E 135°01'713.7
2017-Oct-12 02:00N 34°27' E 135°06'714.5
2017-Oct-12 01:30N 34°31' E 135°14'611.9
2017-Oct-12 01:00N 34°33' E 135°20'4 7.1
2017-Oct-12 00:28N 34°33' E 135°25'24 1.0
2017-Oct-11 00:00N 34°20' E 135°01'612.7
2017-Oct-10 23:30N 34°14' E 134°60'5 9.5
2017-Oct-10 23:00N 34°09' E 135°00'510.0
2017-Oct-10 22:30N 34°04' E 134°60'4 8.1
2017-Oct-10 22:00N 33°60' E 134°60'5 9.5
2017-Oct-10 21:28N 33°55' E 134°59'  

Dump ship's entire track history